createdAt,value
2023-03-27T05:46:03.545Z,101109.00
2023-03-27T05:51:09.747Z,101111.81
2023-03-27T05:56:15.125Z,101117.69
2023-03-27T06:01:23.406Z,101112.81
2023-03-27T06:06:29.005Z,101111.09
2023-03-27T06:11:34.180Z,101124.50
2023-03-27T06:16:42.097Z,101111.09
2023-03-27T06:21:47.952Z,101121.06
2023-03-27T06:26:53.968Z,101135.19
2023-03-27T06:32:02.843Z,101132.09
2023-03-27T06:37:08.334Z,101151.13
2023-03-27T06:42:13.646Z,101160.69
2023-03-27T06:47:22.069Z,101129.97
2023-03-27T06:52:27.821Z,101137.72
2023-03-27T06:57:33.106Z,101148.47
2023-03-27T07:02:41.404Z,101144.56
2023-03-27T17:47:16.136Z,101666.59
2023-03-27T17:52:23.597Z,101694.88
2023-03-27T17:57:29.808Z,101693.00
2023-03-27T18:02:38.854Z,101700.16
2023-03-27T18:07:44.745Z,101712.19
2023-03-27T18:12:50.192Z,101707.88
2023-03-27T18:17:58.147Z,101724.00
2023-03-27T18:23:04.140Z,101722.16
2023-03-27T18:28:09.502Z,101727.91
2023-03-27T18:33:17.603Z,101727.72
2023-03-27T18:38:23.202Z,101740.22
2023-03-27T18:43:28.577Z,101734.91
2023-03-27T18:48:36.798Z,101747.47
2023-03-27T18:53:42.248Z,101757.47
2023-03-27T18:58:47.598Z,101767.50
2023-03-27T19:03:55.491Z,101757.16
2023-03-27T19:09:01.033Z,101767.25
2023-03-27T19:14:06.551Z,101773.25
2023-03-27T19:19:14.785Z,101772.34
2023-03-27T19:24:20.128Z,101768.75
2023-03-27T19:29:25.965Z,101777.09
2023-03-27T19:34:42.542Z,101782.00
2023-03-27T19:39:48.525Z,101780.81
2023-03-27T19:44:53.755Z,101794.09
2023-03-27T19:50:02.010Z,101785.38
2023-03-27T19:55:08.128Z,101800.38
2023-03-27T20:00:15.960Z,101801.00
2023-03-27T20:05:23.972Z,101805.88
2023-03-27T20:10:29.484Z,101815.88
2023-03-27T20:15:35.003Z,101818.19
